createdAt,value
2023-02-17T00:04:55.477Z,8.76
2023-02-17T00:09:58.385Z,8.80
2023-02-17T00:15:00.014Z,8.80
2023-02-17T00:20:01.692Z,8.86
2023-02-17T00:25:03.771Z,9.05
2023-02-17T00:30:06.311Z,9.08
2023-02-17T00:35:08.338Z,9.16
2023-02-17T00:40:10.371Z,9.15
2023-02-17T00:45:12.184Z,9.10
2023-02-17T00:50:13.873Z,9.17
2023-02-17T00:55:15.605Z,8.91
2023-02-17T01:00:17.793Z,9.01
2023-02-17T01:05:19.862Z,8.99
2023-02-17T01:10:21.671Z,9.10
2023-02-17T01:15:23.399Z,8.91
2023-02-17T01:20:25.121Z,8.88
2023-02-17T01:25:26.788Z,9.09
2023-02-17T01:30:30.833Z,9.10
2023-02-17T01:35:34.193Z,9.20
2023-02-17T01:40:36.012Z,8.97
2023-02-17T01:45:46.112Z,9.01
2023-02-17T01:50:53.528Z,9.05
2023-02-17T01:55:56.995Z,9.16
2023-02-17T02:01:03.308Z,9.21
2023-02-17T02:06:11.997Z,8.92
2023-02-17T02:11:13.713Z,9.01
2023-02-17T02:16:15.417Z,9.09
2023-02-17T02:21:35.053Z,8.86
2023-02-17T02:26:42.401Z,8.97
2023-02-17T02:32:21.304Z,9.17
2023-02-17T02:37:35.635Z,9.27
2023-02-17T02:42:39.096Z,9.27
2023-02-17T02:47:49.440Z,9.21
2023-02-17T02:53:45.958Z,9.05
2023-02-17T02:58:59.653Z,8.98
2023-02-17T03:04:18.011Z,9.00
2023-02-17T03:09:27.357Z,8.94
2023-02-17T03:14:36.316Z,8.91
2023-02-17T03:19:38.359Z,8.99
2023-02-17T03:24:40.116Z,8.91
2023-02-17T03:29:43.462Z,9.00
2023-02-17T03:34:45.996Z,9.05
2023-02-17T03:39:47.770Z,9.12
2023-02-17T03:44:49.469Z,9.07
2023-02-17T03:49:51.875Z,9.10
2023-02-17T03:54:53.601Z,9.00
2023-02-17T03:59:55.225Z,9.04
2023-02-17T04:04:56.875Z,8.95
2023-02-17T04:09:58.530Z,8.83
2023-02-17T04:15:00.231Z,8.76
2023-02-17T04:20:01.957Z,8.52
2023-02-17T04:25:03.700Z,8.15
2023-02-17T04:30:07.207Z,7.94
2023-02-17T04:35:08.902Z,7.95
2023-02-17T04:40:11.208Z,7.98
2023-02-17T04:45:13.748Z,8.01
2023-02-17T04:50:15.464Z,7.89
2023-02-17T04:55:17.311Z,7.92
2023-02-17T05:00:19.334Z,7.98
2023-02-17T05:05:21.212Z,7.97
2023-02-17T05:10:24.082Z,8.08
2023-02-17T05:15:26.056Z,8.08
2023-02-17T05:20:27.941Z,8.06
2023-02-17T05:25:29.835Z,8.06
2023-02-17T05:30:31.577Z,8.13
2023-02-17T05:35:35.290Z,8.13
2023-02-17T05:40:36.942Z,8.15
2023-02-17T05:45:38.561Z,8.16
2023-02-17T05:50:40.296Z,8.26
2023-02-17T05:55:41.950Z,8.26
2023-02-17T06:00:45.248Z,8.41
2023-02-17T06:05:47.062Z,8.41
2023-02-17T06:10:48.684Z,8.44
2023-02-17T06:15:50.410Z,8.46
2023-02-17T06:20:55.288Z,8.36
2023-02-17T06:25:56.961Z,8.54
2023-02-17T06:30:58.589Z,8.57
2023-02-17T06:36:00.298Z,8.48
2023-02-17T06:41:02.184Z,8.67
2023-02-17T06:46:04.029Z,8.72
2023-02-17T06:51:05.945Z,8.79
2023-02-17T06:56:07.970Z,8.77
2023-02-17T07:01:17.984Z,8.88
2023-02-17T07:06:19.818Z,8.92
2023-02-17T07:11:21.666Z,8.87
2023-02-17T07:16:23.501Z,8.85
2023-02-17T07:21:25.445Z,8.88
2023-02-17T07:26:27.145Z,8.94
2023-02-17T07:31:28.896Z,8.88
2023-02-17T07:36:30.804Z,8.92
2023-02-17T07:41:33.607Z,8.82
2023-02-17T07:46:43.224Z,8.85
2023-02-17T07:51:45.236Z,9.05
2023-02-17T07:56:47.364Z,9.02
2023-02-17T08:01:49.853Z,9.01
2023-02-17T08:06:51.670Z,9.13
2023-02-17T08:12:11.882Z,9.15
2023-02-17T08:17:14.034Z,9.23
2023-02-17T08:22:16.868Z,9.28
2023-02-17T08:27:19.418Z,9.25
2023-02-17T08:32:21.097Z,9.22
2023-02-17T08:37:22.811Z,9.32
2023-02-17T08:42:26.622Z,9.28
2023-02-17T08:47:28.299Z,9.37
2023-02-17T08:52:30.493Z,9.35
2023-02-17T08:57:32.104Z,9.47
2023-02-17T09:02:33.897Z,9.55
2023-02-17T09:07:35.494Z,9.64
2023-02-17T09:12:37.277Z,9.73
2023-02-17T09:24:16.731Z,10.09
2023-02-17T09:41:51.892Z,10.61
2023-02-17T09:47:07.252Z,10.72
2023-02-17T09:52:33.803Z,10.76
2023-02-17T09:57:49.464Z,10.78
2023-02-17T10:03:04.739Z,10.85
2023-02-17T10:08:13.435Z,10.75
2023-02-17T10:13:20.209Z,10.67
2023-02-17T10:18:34.865Z,10.67
2023-02-17T10:23:36.668Z,10.60
2023-02-17T10:28:49.172Z,10.72
2023-02-17T10:33:57.251Z,10.86
2023-02-17T10:39:21.922Z,10.96
2023-02-17T10:44:25.122Z,11.05
2023-02-17T10:49:34.300Z,11.15
2023-02-17T10:54:39.615Z,11.23
2023-02-17T10:59:43.899Z,11.29
2023-02-17T11:04:49.038Z,11.33
2023-02-17T11:09:55.172Z,11.34
2023-02-17T11:14:57.607Z,11.27
2023-02-17T11:20:09.294Z,11.28
2023-02-17T11:25:25.287Z,11.26
2023-02-17T11:30:29.419Z,11.26
2023-02-17T11:35:36.786Z,11.21
2023-02-17T11:40:38.641Z,11.36
2023-02-17T11:45:50.179Z,11.34
2023-02-17T11:51:12.615Z,11.44
2023-02-17T11:56:18.489Z,11.57
2023-02-17T12:01:36.589Z,11.63
2023-02-17T12:06:40.911Z,11.76
2023-02-17T12:12:03.924Z,11.76
2023-02-17T12:17:49.024Z,11.83
2023-02-17T12:23:06.682Z,11.92
2023-02-17T12:28:36.192Z,11.92
2023-02-17T12:34:05.919Z,12.03
2023-02-17T12:39:18.352Z,12.14
2023-02-17T12:44:33.606Z,12.17
2023-02-17T12:49:41.543Z,12.27
2023-02-17T12:55:38.916Z,12.31
2023-02-17T13:00:52.328Z,12.44
2023-02-17T13:06:02.588Z,12.50
2023-02-17T13:11:25.186Z,12.52
2023-02-17T13:16:28.548Z,12.54
2023-02-17T13:21:33.438Z,12.52
2023-02-17T13:26:37.982Z,12.52
2023-02-17T13:32:02.259Z,12.50
2023-02-17T13:37:44.766Z,12.47
2023-02-17T13:42:52.796Z,12.48
2023-02-17T13:47:57.373Z,12.42
2023-02-17T13:53:00.275Z,12.44
2023-02-17T13:58:02.036Z,12.48
2023-02-17T14:03:23.899Z,12.48
2023-02-17T14:08:43.512Z,12.60
2023-02-17T14:13:51.167Z,12.60
2023-02-17T14:19:02.693Z,12.59
2023-02-17T14:24:05.457Z,12.68
2023-02-17T14:29:09.900Z,12.71
2023-02-17T14:34:20.848Z,12.70
2023-02-17T14:39:22.792Z,12.63
2023-02-17T14:44:24.417Z,12.59
2023-02-17T14:49:26.389Z,12.61
2023-02-17T14:54:30.358Z,12.57
2023-02-17T14:59:32.312Z,12.57
2023-02-17T15:04:34.149Z,12.54
2023-02-17T15:09:35.848Z,12.53
2023-02-17T15:14:37.556Z,12.58
2023-02-17T15:19:39.642Z,12.65
2023-02-17T15:24:41.466Z,12.55
2023-02-17T15:29:43.663Z,12.51
2023-02-17T15:34:46.168Z,12.46
2023-02-17T15:39:47.800Z,12.36
2023-02-17T15:44:50.556Z,12.29
2023-02-17T15:49:52.285Z,12.31
2023-02-17T15:54:54.269Z,12.31
2023-02-17T15:59:56.263Z,12.28
2023-02-17T16:04:57.909Z,12.25
2023-02-17T16:09:59.559Z,12.27
2023-02-17T16:15:02.241Z,12.12
2023-02-17T16:20:09.353Z,12.18
2023-02-17T16:25:12.431Z,12.10
2023-02-17T16:30:22.566Z,12.14
2023-02-17T16:35:27.224Z,12.15
2023-02-17T16:40:31.715Z,12.12
2023-02-17T16:45:34.109Z,12.16
2023-02-17T16:50:36.280Z,12.17
2023-02-17T16:55:38.683Z,12.18
2023-02-17T17:00:40.621Z,12.18
2023-02-17T17:05:43.050Z,12.10
2023-02-17T17:10:46.091Z,12.09
2023-02-17T17:15:48.083Z,12.24
2023-02-17T17:20:50.176Z,12.30
2023-02-17T17:25:52.067Z,12.20
2023-02-17T17:30:54.113Z,12.36
2023-02-17T17:35:59.556Z,12.46
2023-02-17T17:41:12.394Z,12.50
2023-02-17T17:46:21.538Z,12.68
2023-02-17T17:51:26.975Z,12.69
2023-02-17T17:56:36.523Z,12.67
2023-02-17T18:01:38.537Z,12.73
2023-02-17T18:06:44.044Z,12.69
2023-02-17T18:11:46.608Z,12.64
2023-02-17T18:16:49.192Z,12.75
2023-02-17T18:21:50.963Z,12.49
2023-02-17T18:26:52.611Z,12.21
2023-02-17T18:31:54.518Z,11.74
2023-02-17T18:36:56.242Z,11.39
2023-02-17T18:41:57.916Z,11.20
2023-02-17T18:46:59.577Z,10.87
2023-02-17T18:52:01.247Z,10.73
2023-02-17T18:57:02.969Z,10.77
2023-02-17T19:02:06.302Z,10.73
2023-02-17T19:07:08.432Z,10.74
2023-02-17T19:12:13.675Z,10.62
2023-02-17T19:17:18.396Z,10.66
2023-02-17T19:22:20.442Z,10.60
2023-02-17T19:27:22.255Z,10.60
2023-02-17T19:32:24.291Z,10.78
2023-02-17T19:37:26.018Z,10.83
2023-02-17T19:42:28.206Z,10.88
2023-02-17T19:47:30.894Z,10.99
2023-02-17T19:52:32.808Z,11.02
2023-02-17T19:57:34.554Z,11.05
2023-02-17T20:02:36.791Z,11.08
2023-02-17T20:07:38.628Z,11.14
2023-02-17T20:12:43.295Z,11.01
2023-02-17T20:17:45.316Z,11.06
2023-02-17T20:22:47.022Z,11.00
2023-02-17T20:27:48.870Z,10.98
2023-02-17T20:32:50.641Z,11.27
2023-02-17T20:37:52.412Z,11.21
2023-02-17T20:42:54.188Z,11.27
2023-02-17T20:47:55.842Z,11.18
2023-02-17T20:52:57.775Z,11.09
2023-02-17T20:58:00.253Z,11.01
2023-02-17T21:03:02.051Z,10.95
2023-02-17T21:08:04.532Z,10.86
2023-02-17T21:13:06.297Z,10.88
2023-02-17T21:18:08.975Z,10.58
2023-02-17T21:23:10.647Z,10.66
2023-02-17T21:28:12.295Z,10.62
2023-02-17T21:33:14.057Z,10.57
2023-02-17T21:38:16.831Z,10.54
2023-02-17T21:43:38.051Z,10.46
2023-02-17T21:48:39.895Z,10.48
2023-02-17T21:53:41.713Z,10.48
2023-02-17T21:58:48.246Z,10.61
2023-02-17T22:03:50.197Z,10.49
2023-02-17T22:08:52.219Z,9.84
2023-02-17T22:13:58.630Z,9.26
2023-02-17T22:19:01.279Z,8.86
2023-02-17T22:24:03.016Z,8.77
2023-02-17T22:29:04.965Z,8.71
2023-02-17T22:34:09.998Z,8.70
2023-02-17T22:39:11.929Z,8.52
2023-02-17T22:44:13.653Z,8.59
2023-02-17T22:49:15.491Z,8.67
2023-02-17T22:54:17.202Z,8.57
2023-02-17T22:59:18.864Z,8.56
2023-02-17T23:04:20.764Z,8.47
2023-02-17T23:09:22.656Z,8.64
2023-02-17T23:14:35.937Z,8.80
2023-02-17T23:19:39.035Z,8.76
2023-02-17T23:24:40.730Z,8.71
2023-02-17T23:29:42.538Z,8.83
2023-02-17T23:34:44.568Z,8.67
2023-02-17T23:39:46.252Z,8.63
2023-02-17T23:44:47.958Z,8.81
2023-02-17T23:49:49.672Z,8.75
2023-02-17T23:54:51.340Z,8.76
2023-02-17T23:59:53.371Z,8.61
